sensor_id;sensor_type;location;lat;lon;timestamp;temperature;humidity
67101;DHT22;54019;61.746;16.106;2022-10-16T00:02:00;22.00;36.70
67101;DHT22;54019;61.746;16.106;2022-10-16T00:04:28;22.00;36.70
67101;DHT22;54019;61.746;16.106;2022-10-16T00:06:54;22.00;36.80
67101;DHT22;54019;61.746;16.106;2022-10-16T00:09:20;22.00;36.80
67101;DHT22;54019;61.746;16.106;2022-10-16T00:11:45;22.00;36.80
67101;DHT22;54019;61.746;16.106;2022-10-16T00:14:13;22.00;36.90
67101;DHT22;54019;61.746;16.106;2022-10-16T00:16:40;22.00;37.00
67101;DHT22;54019;61.746;16.106;2022-10-16T00:19:06;21.90;37.00
67101;DHT22;54019;61.746;16.106;2022-10-16T00:21:34;21.90;37.00
67101;DHT22;54019;61.746;16.106;2022-10-16T00:24:01;21.90;37.30
67101;DHT22;54019;61.746;16.106;2022-10-16T00:26:28;21.90;37.30
67101;DHT22;54019;61.746;16.106;2022-10-16T00:28:55;21.80;37.30
67101;DHT22;54019;61.746;16.106;2022-10-16T00:31:21;21.90;37.40
67101;DHT22;54019;61.746;16.106;2022-10-16T00:33:48;21.80;37.50
67101;DHT22;54019;61.746;16.106;2022-10-16T00:36:17;21.80;37.10
67101;DHT22;54019;61.746;16.106;2022-10-16T00:38:44;21.80;37.40
67101;DHT22;54019;61.746;16.106;2022-10-16T00:41:12;21.80;37.40
67101;DHT22;54019;61.746;16.106;2022-10-16T00:43:40;21.80;37.30
67101;DHT22;54019;61.746;16.106;2022-10-16T00:46:13;21.80;37.10
67101;DHT22;54019;61.746;16.106;2022-10-16T00:48:41;21.80;36.80
67101;DHT22;54019;61.746;16.106;2022-10-16T00:51:08;21.80;37.00
67101;DHT22;54019;61.746;16.106;2022-10-16T00:53:35;21.80;37.00
67101;DHT22;54019;61.746;16.106;2022-10-16T00:56:03;21.80;36.80
67101;DHT22;54019;61.746;16.106;2022-10-16T00:58:29;21.80;37.10
67101;DHT22;54019;61.746;16.106;2022-10-16T01:00:55;21.80;37.20
67101;DHT22;54019;61.746;16.106;2022-10-16T01:03:26;21.80;37.30
67101;DHT22;54019;61.746;16.106;2022-10-16T01:06:00;21.80;36.70
67101;DHT22;54019;61.746;16.106;2022-10-16T01:08:32;21.70;37.00
67101;DHT22;54019;61.746;16.106;2022-10-16T01:11:06;21.80;37.50
67101;DHT22;54019;61.746;16.106;2022-10-16T01:13:40;21.70;37.00
67101;DHT22;54019;61.746;16.106;2022-10-16T01:16:11;21.70;37.40
67101;DHT22;54019;61.746;16.106;2022-10-16T01:18:42;21.70;37.20
67101;DHT22;54019;61.746;16.106;2022-10-16T01:21:12;21.70;37.20
67101;DHT22;54019;61.746;16.106;2022-10-16T01:23:47;21.70;36.70
67101;DHT22;54019;61.746;16.106;2022-10-16T01:26:37;21.70;36.80
67101;DHT22;54019;61.746;16.106;2022-10-16T01:29:09;21.70;36.60
67101;DHT22;54019;61.746;16.106;2022-10-16T01:31:41;21.70;36.60
67101;DHT22;54019;61.746;16.106;2022-10-16T01:34:15;21.70;36.80
67101;DHT22;54019;61.746;16.106;2022-10-16T01:36:46;21.70;36.50
67101;DHT22;54019;61.746;16.106;2022-10-16T01:39:13;21.70;36.10
67101;DHT22;54019;61.746;16.106;2022-10-16T01:41:43;21.70;35.90
67101;DHT22;54019;61.746;16.106;2022-10-16T01:44:16;21.70;36.30
67101;DHT22;54019;61.746;16.106;2022-10-16T01:46:46;21.70;36.40
67101;DHT22;54019;61.746;16.106;2022-10-16T01:49:13;21.70;37.00
67101;DHT22;54019;61.746;16.106;2022-10-16T01:51:40;21.60;37.20
67101;DHT22;54019;61.746;16.106;2022-10-16T01:54:08;21.60;37.10
67101;DHT22;54019;61.746;16.106;2022-10-16T01:56:36;21.60;37.00
67101;DHT22;54019;61.746;16.106;2022-10-16T01:59:07;21.60;37.00
67101;DHT22;54019;61.746;16.106;2022-10-16T02:01:38;21.60;37.30
67101;DHT22;54019;61.746;16.106;2022-10-16T02:04:09;21.60;37.00
67101;DHT22;54019;61.746;16.106;2022-10-16T02:06:37;21.60;36.80
67101;DHT22;54019;61.746;16.106;2022-10-16T02:09:03;21.60;36.80
67101;DHT22;54019;61.746;16.106;2022-10-16T02:11:29;21.60;36.60
67101;DHT22;54019;61.746;16.106;2022-10-16T02:13:58;21.60;36.50
67101;DHT22;54019;61.746;16.106;2022-10-16T02:16:34;21.60;36.50
67101;DHT22;54019;61.746;16.106;2022-10-16T02:19:01;21.60;36.90
67101;DHT22;54019;61.746;16.106;2022-10-16T02:21:31;21.60;36.80
67101;DHT22;54019;61.746;16.106;2022-10-16T02:24:03;21.60;36.70
67101;DHT22;54019;61.746;16.106;2022-10-16T02:26:35;21.60;36.50
67101;DHT22;54019;61.746;16.106;2022-10-16T02:29:06;21.60;36.50
67101;DHT22;54019;61.746;16.106;2022-10-16T02:31:38;21.60;36.00
67101;DHT22;54019;61.746;16.106;2022-10-16T02:34:07;21.60;36.50
67101;DHT22;54019;61.746;16.106;2022-10-16T02:36:35;21.60;36.40
67101;DHT22;54019;61.746;16.106;2022-10-16T02:39:02;21.60;36.90
67101;DHT22;54019;61.746;16.106;2022-10-16T02:41:28;21.60;37.30
67101;DHT22;54019;61.746;16.106;2022-10-16T02:43:54;21.60;37.10
67101;DHT22;54019;61.746;16.106;2022-10-16T02:46:20;21.60;36.60
67101;DHT22;54019;61.746;16.106;2022-10-16T02:48:46;21.60;36.30
67101;DHT22;54019;61.746;16.106;2022-10-16T02:51:14;21.60;36.40
67101;DHT22;54019;61.746;16.106;2022-10-16T02:53:39;21.60;36.60
67101;DHT22;54019;61.746;16.106;2022-10-16T02:56:05;21.60;36.80
67101;DHT22;54019;61.746;16.106;2022-10-16T02:58:31;21.60;36.60
67101;DHT22;54019;61.746;16.106;2022-10-16T03:00:57;21.50;36.90
67101;DHT22;54019;61.746;16.106;2022-10-16T03:03:23;21.60;38.00
67101;DHT22;54019;61.746;16.106;2022-10-16T03:05:49;21.60;38.30
67101;DHT22;54019;61.746;16.106;2022-10-16T03:08:16;21.60;38.60
67101;DHT22;54019;61.746;16.106;2022-10-16T03:10:42;21.60;38.10
67101;DHT22;54019;61.746;16.106;2022-10-16T03:13:10;21.60;38.40
67101;DHT22;54019;61.746;16.106;2022-10-16T03:15:36;21.60;38.40
67101;DHT22;54019;61.746;16.106;2022-10-16T03:18:02;21.60;38.00
67101;DHT22;54019;61.746;16.106;2022-10-16T03:20:28;21.60;38.10
67101;DHT22;54019;61.746;16.106;2022-10-16T03:22:54;21.60;38.00
67101;DHT22;54019;61.746;16.106;2022-10-16T03:25:21;21.60;37.70
67101;DHT22;54019;61.746;16.106;2022-10-16T03:27:47;21.60;37.70
67101;DHT22;54019;61.746;16.106;2022-10-16T03:30:13;21.60;37.70
67101;DHT22;54019;61.746;16.106;2022-10-16T03:32:38;21.70;37.00
67101;DHT22;54019;61.746;16.106;2022-10-16T03:35:05;21.80;36.80
67101;DHT22;54019;61.746;16.106;2022-10-16T03:37:31;21.80;36.40
67101;DHT22;54019;61.746;16.106;2022-10-16T03:39:57;21.90;36.30
67101;DHT22;54019;61.746;16.106;2022-10-16T03:42:24;21.90;36.30
67101;DHT22;54019;61.746;16.106;2022-10-16T03:44:50;22.00;36.10
67101;DHT22;54019;61.746;16.106;2022-10-16T03:47:16;22.00;35.80
67101;DHT22;54019;61.746;16.106;2022-10-16T03:49:41;22.00;35.80
67101;DHT22;54019;61.746;16.106;2022-10-16T03:52:07;22.00;35.80
67101;DHT22;54019;61.746;16.106;2022-10-16T03:54:33;22.00;35.90
67101;DHT22;54019;61.746;16.106;2022-10-16T03:56:59;22.00;35.70
67101;DHT22;54019;61.746;16.106;2022-10-16T03:59:26;22.00;35.80
67101;DHT22;54019;61.746;16.106;2022-10-16T04:01:52;22.00;35.80
67101;DHT22;54019;61.746;16.106;2022-10-16T04:04:18;21.90;35.90
67101;DHT22;54019;61.746;16.106;2022-10-16T04:06:44;21.90;36.20
67101;DHT22;54019;61.746;16.106;2022-10-16T04:09:09;21.90;36.10
67101;DHT22;54019;61.746;16.106;2022-10-16T04:11:35;21.90;36.20
67101;DHT22;54019;61.746;16.106;2022-10-16T04:14:01;21.80;36.30
67101;DHT22;54019;61.746;16.106;2022-10-16T04:16:28;21.80;36.20
67101;DHT22;54019;61.746;16.106;2022-10-16T04:18:54;21.80;36.50
67101;DHT22;54019;61.746;16.106;2022-10-16T04:21:20;21.80;36.60
67101;DHT22;54019;61.746;16.106;2022-10-16T04:23:46;21.80;36.60
67101;DHT22;54019;61.746;16.106;2022-10-16T04:26:12;21.80;36.20
67101;DHT22;54019;61.746;16.106;2022-10-16T04:28:37;21.90;36.00
67101;DHT22;54019;61.746;16.106;2022-10-16T04:31:04;22.00;36.00
67101;DHT22;54019;61.746;16.106;2022-10-16T04:33:31;22.00;36.10
67101;DHT22;54019;61.746;16.106;2022-10-16T04:35:57;22.00;36.00
67101;DHT22;54019;61.746;16.106;2022-10-16T04:38:23;22.00;36.00
67101;DHT22;54019;61.746;16.106;2022-10-16T04:40:49;22.00;36.00
67101;DHT22;54019;61.746;16.106;2022-10-16T04:43:15;22.10;36.10
67101;DHT22;54019;61.746;16.106;2022-10-16T04:45:40;22.00;36.00
67101;DHT22;54019;61.746;16.106;2022-10-16T04:48:06;22.00;36.10
67101;DHT22;54019;61.746;16.106;2022-10-16T04:50:33;22.00;36.10
67101;DHT22;54019;61.746;16.106;2022-10-16T04:52:59;22.00;36.10
67101;DHT22;54019;61.746;16.106;2022-10-16T04:55:25;22.00;36.30
67101;DHT22;54019;61.746;16.106;2022-10-16T04:57:51;22.00;36.20
67101;DHT22;54019;61.746;16.106;2022-10-16T05:00:17;21.90;36.30
67101;DHT22;54019;61.746;16.106;2022-10-16T05:02:43;21.90;36.50
67101;DHT22;54019;61.746;16.106;2022-10-16T05:05:09;21.90;36.60
67101;DHT22;54019;61.746;16.106;2022-10-16T05:07:36;21.80;36.50
67101;DHT22;54019;61.746;16.106;2022-10-16T05:10:02;21.90;36.40
67101;DHT22;54019;61.746;16.106;2022-10-16T05:12:28;21.80;36.80
67101;DHT22;54019;61.746;16.106;2022-10-16T05:14:54;21.80;36.70
67101;DHT22;54019;61.746;16.106;2022-10-16T05:17:20;21.80;37.00
67101;DHT22;54019;61.746;16.106;2022-10-16T05:19:46;21.80;37.10
67101;DHT22;54019;61.746;16.106;2022-10-16T05:22:11;21.80;37.10
67101;DHT22;54019;61.746;16.106;2022-10-16T05:24:39;21.80;37.00
67101;DHT22;54019;61.746;16.106;2022-10-16T05:27:04;21.80;37.00
67101;DHT22;54019;61.746;16.106;2022-10-16T05:29:30;21.80;36.40
67101;DHT22;54019;61.746;16.106;2022-10-16T05:31:56;21.90;36.30
67101;DHT22;54019;61.746;16.106;2022-10-16T05:34:22;22.00;36.30
67101;DHT22;54019;61.746;16.106;2022-10-16T05:36:48;22.00;36.20
67101;DHT22;54019;61.746;16.106;2022-10-16T05:39:14;22.00;36.20
67101;DHT22;54019;61.746;16.106;2022-10-16T05:41:42;22.00;36.20
67101;DHT22;54019;61.746;16.106;2022-10-16T05:44:08;22.10;36.30
67101;DHT22;54019;61.746;16.106;2022-10-16T05:46:34;22.00;36.20
67101;DHT22;54019;61.746;16.106;2022-10-16T05:48:59;22.00;36.30
67101;DHT22;54019;61.746;16.106;2022-10-16T05:51:25;22.00;36.30
67101;DHT22;54019;61.746;16.106;2022-10-16T05:53:52;22.00;36.30
67101;DHT22;54019;61.746;16.106;2022-10-16T05:56:18;21.90;36.50
67101;DHT22;54019;61.746;16.106;2022-10-16T05:58:45;22.00;36.40
67101;DHT22;54019;61.746;16.106;2022-10-16T06:01:13;21.90;36.60
67101;DHT22;54019;61.746;16.106;2022-10-16T06:03:39;21.90;36.40
67101;DHT22;54019;61.746;16.106;2022-10-16T06:06:09;21.90;36.70
67101;DHT22;54019;61.746;16.106;2022-10-16T06:08:34;21.80;36.90
67101;DHT22;54019;61.746;16.106;2022-10-16T06:11:01;21.80;36.40
67101;DHT22;54019;61.746;16.106;2022-10-16T06:13:27;21.80;37.50
67101;DHT22;54019;61.746;16.106;2022-10-16T06:15:57;21.80;37.20
67101;DHT22;54019;61.746;16.106;2022-10-16T06:18:23;21.80;37.20
67101;DHT22;54019;61.746;16.106;2022-10-16T06:20:49;21.80;37.20
67101;DHT22;54019;61.746;16.106;2022-10-16T06:23:15;21.80;37.40
67101;DHT22;54019;61.746;16.106;2022-10-16T06:25:41;21.80;37.20
67101;DHT22;54019;61.746;16.106;2022-10-16T06:28:06;21.80;37.60
67101;DHT22;54019;61.746;16.106;2022-10-16T06:30:32;21.80;37.10
67101;DHT22;54019;61.746;16.106;2022-10-16T06:33:00;21.80;37.00
67101;DHT22;54019;61.746;16.106;2022-10-16T06:35:25;21.90;36.80
67101;DHT22;54019;61.746;16.106;2022-10-16T06:37:52;22.00;36.70
67101;DHT22;54019;61.746;16.106;2022-10-16T06:40:18;22.00;36.50
67101;DHT22;54019;61.746;16.106;2022-10-16T06:42:44;22.00;36.60
67101;DHT22;54019;61.746;16.106;2022-10-16T06:45:10;22.00;36.50
67101;DHT22;54019;61.746;16.106;2022-10-16T06:47:36;22.00;36.50
67101;DHT22;54019;61.746;16.106;2022-10-16T06:50:04;22.00;36.60
67101;DHT22;54019;61.746;16.106;2022-10-16T06:52:30;22.00;36.40
67101;DHT22;54019;61.746;16.106;2022-10-16T06:54:56;22.00;36.50
67101;DHT22;54019;61.746;16.106;2022-10-16T06:57:22;22.00;36.50
67101;DHT22;54019;61.746;16.106;2022-10-16T06:59:47;22.00;36.60
67101;DHT22;54019;61.746;16.106;2022-10-16T07:02:13;22.00;36.70
67101;DHT22;54019;61.746;16.106;2022-10-16T07:04:39;22.00;36.80
67101;DHT22;54019;61.746;16.106;2022-10-16T07:07:06;22.00;36.60
67101;DHT22;54019;61.746;16.106;2022-10-16T07:09:32;22.00;36.80
67101;DHT22;54019;61.746;16.106;2022-10-16T07:11:58;22.00;36.90
67101;DHT22;54019;61.746;16.106;2022-10-16T07:14:24;21.90;36.80
67101;DHT22;54019;61.746;16.106;2022-10-16T07:16:50;22.00;36.90
67101;DHT22;54019;61.746;16.106;2022-10-16T07:19:15;21.90;37.00
67101;DHT22;54019;61.746;16.106;2022-10-16T07:21:41;21.90;37.10
67101;DHT22;54019;61.746;16.106;2022-10-16T07:24:12;21.90;37.10
67101;DHT22;54019;61.746;16.106;2022-10-16T07:26:38;21.90;37.20
67101;DHT22;54019;61.746;16.106;2022-10-16T07:29:04;21.90;37.10
67101;DHT22;54019;61.746;16.106;2022-10-16T07:31:30;21.90;36.90
67101;DHT22;54019;61.746;16.106;2022-10-16T07:33:58;21.90;36.90
67101;DHT22;54019;61.746;16.106;2022-10-16T07:36:24;22.00;36.70
67101;DHT22;54019;61.746;16.106;2022-10-16T07:38:50;22.00;36.80
67101;DHT22;54019;61.746;16.106;2022-10-16T07:41:19;22.00;36.60
67101;DHT22;54019;61.746;16.106;2022-10-16T07:43:46;22.10;36.60
67101;DHT22;54019;61.746;16.106;2022-10-16T07:46:12;22.20;36.60
67101;DHT22;54019;61.746;16.106;2022-10-16T07:48:38;22.30;36.50
67101;DHT22;54019;61.746;16.106;2022-10-16T07:51:05;22.40;36.50
67101;DHT22;54019;61.746;16.106;2022-10-16T07:53:31;22.40;36.00
67101;DHT22;54019;61.746;16.106;2022-10-16T07:55:58;22.60;36.00
67101;DHT22;54019;61.746;16.106;2022-10-16T07:58:26;22.60;35.90
67101;DHT22;54019;61.746;16.106;2022-10-16T08:00:51;22.60;36.60
67101;DHT22;54019;61.746;16.106;2022-10-16T08:03:17;22.60;36.20
67101;DHT22;54019;61.746;16.106;2022-10-16T08:05:43;22.60;36.20
67101;DHT22;54019;61.746;16.106;2022-10-16T08:08:12;22.50;36.30
67101;DHT22;54019;61.746;16.106;2022-10-16T08:10:38;22.50;36.60
67101;DHT22;54019;61.746;16.106;2022-10-16T08:13:04;22.50;36.60
67101;DHT22;54019;61.746;16.106;2022-10-16T08:15:31;22.50;36.80
67101;DHT22;54019;61.746;16.106;2022-10-16T08:17:58;22.50;36.80
67101;DHT22;54019;61.746;16.106;2022-10-16T08:20:25;22.40;36.80
67101;DHT22;54019;61.746;16.106;2022-10-16T08:22:51;22.40;36.80
67101;DHT22;54019;61.746;16.106;2022-10-16T08:25:17;22.40;36.90
67101;DHT22;54019;61.746;16.106;2022-10-16T08:27:43;22.40;38.70
67101;DHT22;54019;61.746;16.106;2022-10-16T08:30:10;22.40;39.90
67101;DHT22;54019;61.746;16.106;2022-10-16T08:32:37;22.40;40.00
67101;DHT22;54019;61.746;16.106;2022-10-16T08:35:03;22.40;39.40
67101;DHT22;54019;61.746;16.106;2022-10-16T08:37:30;22.40;39.30
67101;DHT22;54019;61.746;16.106;2022-10-16T08:39:55;22.40;40.20
67101;DHT22;54019;61.746;16.106;2022-10-16T08:42:35;22.40;40.20
67101;DHT22;54019;61.746;16.106;2022-10-16T08:45:35;22.40;40.30
67101;DHT22;54019;61.746;16.106;2022-10-16T08:48:15;22.50;40.70
67101;DHT22;54019;61.746;16.106;2022-10-16T08:50:43;22.40;40.40
67101;DHT22;54019;61.746;16.106;2022-10-16T08:53:15;22.50;40.10
67101;DHT22;54019;61.746;16.106;2022-10-16T08:55:46;22.40;39.90
67101;DHT22;54019;61.746;16.106;2022-10-16T08:58:15;22.40;39.40
67101;DHT22;54019;61.746;16.106;2022-10-16T09:00:43;22.30;39.10
67101;DHT22;54019;61.746;16.106;2022-10-16T09:03:17;22.30;39.10
67101;DHT22;54019;61.746;16.106;2022-10-16T09:09:10;22.30;38.60
67101;DHT22;54019;61.746;16.106;2022-10-16T09:11:45;22.40;38.60
67101;DHT22;54019;61.746;16.106;2022-10-16T09:14:24;22.50;39.50
67101;DHT22;54019;61.746;16.106;2022-10-16T09:16:57;22.40;39.30
67101;DHT22;54019;61.746;16.106;2022-10-16T09:19:29;22.50;41.70
67101;DHT22;54019;61.746;16.106;2022-10-16T09:21:57;22.70;40.80
67101;DHT22;54019;61.746;16.106;2022-10-16T09:24:26;22.90;40.70
67101;DHT22;54019;61.746;16.106;2022-10-16T09:26:52;23.00;41.10
67101;DHT22;54019;61.746;16.106;2022-10-16T09:29:19;23.10;41.00
67101;DHT22;54019;61.746;16.106;2022-10-16T09:31:46;23.20;40.00
67101;DHT22;54019;61.746;16.106;2022-10-16T09:34:27;23.30;39.10
67101;DHT22;54019;61.746;16.106;2022-10-16T09:36:56;23.30;41.10
67101;DHT22;54019;61.746;16.106;2022-10-16T09:39:23;23.30;39.90
67101;DHT22;54019;61.746;16.106;2022-10-16T09:41:49;23.40;39.90
67101;DHT22;54019;61.746;16.106;2022-10-16T09:44:19;23.30;39.50
67101;DHT22;54019;61.746;16.106;2022-10-16T09:46:46;23.30;39.70
67101;DHT22;54019;61.746;16.106;2022-10-16T09:49:21;23.20;38.50
67101;DHT22;54019;61.746;16.106;2022-10-16T09:51:47;23.10;38.20
67101;DHT22;54019;61.746;16.106;2022-10-16T09:54:16;23.10;38.20
67101;DHT22;54019;61.746;16.106;2022-10-16T09:56:42;23.00;38.20
67101;DHT22;54019;61.746;16.106;2022-10-16T09:59:11;23.00;38.70
67101;DHT22;54019;61.746;16.106;2022-10-16T10:01:39;23.00;38.80
67101;DHT22;54019;61.746;16.106;2022-10-16T10:04:06;22.90;38.60
67101;DHT22;54019;61.746;16.106;2022-10-16T10:06:34;22.90;38.70
67101;DHT22;54019;61.746;16.106;2022-10-16T10:09:05;22.90;38.70
67101;DHT22;54019;61.746;16.106;2022-10-16T10:11:45;23.00;38.80
67101;DHT22;54019;61.746;16.106;2022-10-16T10:14:24;23.00;39.00
67101;DHT22;54019;61.746;16.106;2022-10-16T10:16:52;23.00;39.00
67101;DHT22;54019;61.746;16.106;2022-10-16T10:19:20;23.00;39.40
67101;DHT22;54019;61.746;16.106;2022-10-16T10:21:47;23.00;39.60
67101;DHT22;54019;61.746;16.106;2022-10-16T10:24:15;23.00;39.30
67101;DHT22;54019;61.746;16.106;2022-10-16T10:26:51;23.00;39.20
67101;DHT22;54019;61.746;16.106;2022-10-16T10:29:32;23.00;39.30
67101;DHT22;54019;61.746;16.106;2022-10-16T10:32:11;23.00;39.20
67101;DHT22;54019;61.746;16.106;2022-10-16T10:34:50;23.00;39.40
67101;DHT22;54019;61.746;16.106;2022-10-16T10:37:29;22.90;39.30
67101;DHT22;54019;61.746;16.106;2022-10-16T10:40:02;22.90;39.20
67101;DHT22;54019;61.746;16.106;2022-10-16T10:42:31;22.90;39.20
67101;DHT22;54019;61.746;16.106;2022-10-16T10:45:22;22.90;39.00
67101;DHT22;54019;61.746;16.106;2022-10-16T10:48:03;22.90;39.20
67101;DHT22;54019;61.746;16.106;2022-10-16T10:50:39;22.80;39.90
67101;DHT22;54019;61.746;16.106;2022-10-16T10:53:17;22.80;39.10
67101;DHT22;54019;61.746;16.106;2022-10-16T10:55:47;22.80;39.00
67101;DHT22;54019;61.746;16.106;2022-10-16T10:58:56;22.70;39.00
67101;DHT22;54019;61.746;16.106;2022-10-16T11:01:31;22.70;38.90
67101;DHT22;54019;61.746;16.106;2022-10-16T11:04:24;22.70;38.90
67101;DHT22;54019;61.746;16.106;2022-10-16T11:06:57;22.70;38.80
67101;DHT22;54019;61.746;16.106;2022-10-16T11:09:25;22.70;38.70
67101;DHT22;54019;61.746;16.106;2022-10-16T11:11:56;22.80;38.70
67101;DHT22;54019;61.746;16.106;2022-10-16T11:14:30;22.80;38.40
67101;DHT22;54019;61.746;16.106;2022-10-16T11:17:01;22.80;38.40
67101;DHT22;54019;61.746;16.106;2022-10-16T11:19:35;22.80;38.60
67101;DHT22;54019;61.746;16.106;2022-10-16T11:22:07;22.80;38.60
67101;DHT22;54019;61.746;16.106;2022-10-16T11:24:42;22.80;38.70
67101;DHT22;54019;61.746;16.106;2022-10-16T11:27:15;22.80;38.70
67101;DHT22;54019;61.746;16.106;2022-10-16T11:29:48;22.80;38.90
67101;DHT22;54019;61.746;16.106;2022-10-16T11:32:17;22.80;39.10
67101;DHT22;54019;61.746;16.106;2022-10-16T11:34:49;22.80;38.80
67101;DHT22;54019;61.746;16.106;2022-10-16T11:37:18;22.80;38.80
67101;DHT22;54019;61.746;16.106;2022-10-16T11:39:46;22.80;38.70
67101;DHT22;54019;61.746;16.106;2022-10-16T11:42:18;22.80;38.60
67101;DHT22;54019;61.746;16.106;2022-10-16T11:44:51;22.80;38.60
67101;DHT22;54019;61.746;16.106;2022-10-16T11:47:30;22.80;38.90
67101;DHT22;54019;61.746;16.106;2022-10-16T11:50:01;22.80;38.70
67101;DHT22;54019;61.746;16.106;2022-10-16T11:52:32;22.80;38.70
67101;DHT22;54019;61.746;16.106;2022-10-16T11:55:03;22.80;38.80
67101;DHT22;54019;61.746;16.106;2022-10-16T11:57:33;22.80;38.90
67101;DHT22;54019;61.746;16.106;2022-10-16T12:00:05;22.80;38.80
67101;DHT22;54019;61.746;16.106;2022-10-16T12:02:54;22.80;38.90
67101;DHT22;54019;61.746;16.106;2022-10-16T12:05:28;22.80;39.00
67101;DHT22;54019;61.746;16.106;2022-10-16T12:08:04;22.90;39.10
67101;DHT22;54019;61.746;16.106;2022-10-16T12:10:32;22.90;39.20
67101;DHT22;54019;61.746;16.106;2022-10-16T12:12:58;23.00;40.10
67101;DHT22;54019;61.746;16.106;2022-10-16T12:15:26;23.10;41.30
67101;DHT22;54019;61.746;16.106;2022-10-16T12:17:53;23.10;40.80
67101;DHT22;54019;61.746;16.106;2022-10-16T12:20:25;23.10;40.80
67101;DHT22;54019;61.746;16.106;2022-10-16T12:22:54;23.20;40.50
67101;DHT22;54019;61.746;16.106;2022-10-16T12:25:22;23.20;41.20
67101;DHT22;54019;61.746;16.106;2022-10-16T12:27:58;23.20;41.00
67101;DHT22;54019;61.746;16.106;2022-10-16T12:30:27;23.30;41.40
67101;DHT22;54019;61.746;16.106;2022-10-16T12:32:55;23.20;40.30
67101;DHT22;54019;61.746;16.106;2022-10-16T12:35:24;23.20;40.60
67101;DHT22;54019;61.746;16.106;2022-10-16T12:37:51;23.10;39.40
67101;DHT22;54019;61.746;16.106;2022-10-16T12:40:27;23.10;40.00
67101;DHT22;54019;61.746;16.106;2022-10-16T12:42:54;23.20;40.20
67101;DHT22;54019;61.746;16.106;2022-10-16T12:45:27;23.30;40.30
67101;DHT22;54019;61.746;16.106;2022-10-16T12:47:54;23.40;40.00
67101;DHT22;54019;61.746;16.106;2022-10-16T12:50:26;23.40;40.50
67101;DHT22;54019;61.746;16.106;2022-10-16T12:52:53;23.40;40.20
67101;DHT22;54019;61.746;16.106;2022-10-16T12:55:21;23.50;39.90
67101;DHT22;54019;61.746;16.106;2022-10-16T12:58:06;23.50;39.70
67101;DHT22;54019;61.746;16.106;2022-10-16T13:00:41;23.40;39.50
67101;DHT22;54019;61.746;16.106;2022-10-16T13:06:20;23.50;39.60
67101;DHT22;54019;61.746;16.106;2022-10-16T13:09:02;23.40;39.50
67101;DHT22;54019;61.746;16.106;2022-10-16T13:11:51;23.40;39.60
67101;DHT22;54019;61.746;16.106;2022-10-16T13:14:36;23.50;39.90
67101;DHT22;54019;61.746;16.106;2022-10-16T13:17:11;23.50;40.10
67101;DHT22;54019;61.746;16.106;2022-10-16T13:19:45;23.50;39.80
67101;DHT22;54019;61.746;16.106;2022-10-16T13:22:19;23.60;40.50
67101;DHT22;54019;61.746;16.106;2022-10-16T13:24:56;23.60;39.60
67101;DHT22;54019;61.746;16.106;2022-10-16T13:27:32;23.50;39.30
67101;DHT22;54019;61.746;16.106;2022-10-16T13:30:08;23.60;39.80
67101;DHT22;54019;61.746;16.106;2022-10-16T13:32:36;23.60;39.80
67101;DHT22;54019;61.746;16.106;2022-10-16T13:35:02;23.60;40.40
67101;DHT22;54019;61.746;16.106;2022-10-16T13:37:28;23.60;40.20
67101;DHT22;54019;61.746;16.106;2022-10-16T13:40:06;23.50;38.80
67101;DHT22;54019;61.746;16.106;2022-10-16T13:42:37;23.40;39.00
67101;DHT22;54019;61.746;16.106;2022-10-16T13:45:03;23.40;38.80
67101;DHT22;54019;61.746;16.106;2022-10-16T13:47:29;23.20;36.80
67101;DHT22;54019;61.746;16.106;2022-10-16T13:50:01;23.10;37.40
67101;DHT22;54019;61.746;16.106;2022-10-16T13:52:28;23.00;37.20
67101;DHT22;54019;61.746;16.106;2022-10-16T13:54:54;23.00;36.80
67101;DHT22;54019;61.746;16.106;2022-10-16T13:57:23;23.00;37.60
67101;DHT22;54019;61.746;16.106;2022-10-16T13:59:49;23.00;37.60
67101;DHT22;54019;61.746;16.106;2022-10-16T14:02:20;23.00;37.40
67101;DHT22;54019;61.746;16.106;2022-10-16T14:04:47;23.00;37.50
67101;DHT22;54019;61.746;16.106;2022-10-16T14:07:18;23.00;37.60
67101;DHT22;54019;61.746;16.106;2022-10-16T14:09:48;23.00;38.70
67101;DHT22;54019;61.746;16.106;2022-10-16T14:12:15;23.10;38.70
67101;DHT22;54019;61.746;16.106;2022-10-16T14:14:42;23.20;39.60
67101;DHT22;54019;61.746;16.106;2022-10-16T14:17:13;23.20;39.50
67101;DHT22;54019;61.746;16.106;2022-10-16T14:19:40;23.20;39.30
67101;DHT22;54019;61.746;16.106;2022-10-16T14:22:24;23.30;39.00
67101;DHT22;54019;61.746;16.106;2022-10-16T14:24:51;23.30;38.70
67101;DHT22;54019;61.746;16.106;2022-10-16T14:27:33;23.30;38.90
67101;DHT22;54019;61.746;16.106;2022-10-16T14:30:12;23.30;38.80
67101;DHT22;54019;61.746;16.106;2022-10-16T14:32:40;23.20;37.90
67101;DHT22;54019;61.746;16.106;2022-10-16T14:35:22;23.20;38.00
67101;DHT22;54019;61.746;16.106;2022-10-16T14:37:53;23.20;38.00
67101;DHT22;54019;61.746;16.106;2022-10-16T14:40:19;23.20;38.20
67101;DHT22;54019;61.746;16.106;2022-10-16T14:42:46;23.20;38.50
67101;DHT22;54019;61.746;16.106;2022-10-16T14:45:12;23.20;38.20
67101;DHT22;54019;61.746;16.106;2022-10-16T14:47:47;23.20;38.20
67101;DHT22;54019;61.746;16.106;2022-10-16T14:50:14;23.20;38.20
67101;DHT22;54019;61.746;16.106;2022-10-16T14:52:40;23.10;38.10
67101;DHT22;54019;61.746;16.106;2022-10-16T14:55:09;23.10;38.00
67101;DHT22;54019;61.746;16.106;2022-10-16T14:57:37;23.10;37.90
67101;DHT22;54019;61.746;16.106;2022-10-16T15:00:04;23.00;37.90
67101;DHT22;54019;61.746;16.106;2022-10-16T15:02:33;23.00;38.20
67101;DHT22;54019;61.746;16.106;2022-10-16T15:05:07;23.10;38.90
67101;DHT22;54019;61.746;16.106;2022-10-16T15:07:35;23.00;38.50
67101;DHT22;54019;61.746;16.106;2022-10-16T15:10:01;23.00;38.40
67101;DHT22;54019;61.746;16.106;2022-10-16T15:12:28;22.90;38.30
67101;DHT22;54019;61.746;16.106;2022-10-16T15:14:54;23.00;38.30
67101;DHT22;54019;61.746;16.106;2022-10-16T15:17:20;22.90;38.20
67101;DHT22;54019;61.746;16.106;2022-10-16T15:19:46;22.90;38.20
67101;DHT22;54019;61.746;16.106;2022-10-16T15:22:12;22.90;38.20
67101;DHT22;54019;61.746;16.106;2022-10-16T15:24:38;22.80;38.20
67101;DHT22;54019;61.746;16.106;2022-10-16T15:27:03;22.80;38.20
67101;DHT22;54019;61.746;16.106;2022-10-16T15:29:31;22.80;38.20
67101;DHT22;54019;61.746;16.106;2022-10-16T15:31:56;22.80;38.20
67101;DHT22;54019;61.746;16.106;2022-10-16T15:34:22;22.80;38.20